sensor_id;sensor_type;location;lat;lon;timestamp;P1;durP1;ratioP1;P2;durP2;ratioP2
71941;SDS011;59997;53.300;-6.260;2022-12-18T00:01:05;16.77;;;6.85;;
71941;SDS011;59997;53.300;-6.260;2022-12-18T00:03:38;17.67;;;6.13;;
71941;SDS011;59997;53.300;-6.260;2022-12-18T00:06:03;14.90;;;6.43;;
71941;SDS011;59997;53.300;-6.260;2022-12-18T00:08:29;21.67;;;7.07;;
71941;SDS011;59997;53.300;-6.260;2022-12-18T00:10:54;19.33;;;7.03;;
71941;SDS011;59997;53.300;-6.260;2022-12-18T00:13:20;15.40;;;6.30;;
71941;SDS011;59997;53.300;-6.260;2022-12-18T00:15:46;15.47;;;6.03;;
71941;SDS011;59997;53.300;-6.260;2022-12-18T00:18:11;17.05;;;6.00;;
71941;SDS011;59997;53.300;-6.260;2022-12-18T00:20:37;20.47;;;7.43;;
71941;SDS011;59997;53.300;-6.260;2022-12-18T00:23:04;15.07;;;6.47;;
71941;SDS011;59997;53.300;-6.260;2022-12-18T00:25:32;13.83;;;5.73;;
71941;SDS011;59997;53.300;-6.260;2022-12-18T00:27:59;12.68;;;5.90;;
71941;SDS011;59997;53.300;-6.260;2022-12-18T00:30:25;14.52;;;5.53;;
71941;SDS011;59997;53.300;-6.260;2022-12-18T00:32:50;13.73;;;6.00;;
71941;SDS011;59997;53.300;-6.260;2022-12-18T00:35:15;12.97;;;5.33;;
71941;SDS011;59997;53.300;-6.260;2022-12-18T00:37:41;15.57;;;6.00;;
71941;SDS011;59997;53.300;-6.260;2022-12-18T00:40:07;17.45;;;6.57;;
71941;SDS011;59997;53.300;-6.260;2022-12-18T00:42:33;17.20;;;6.23;;
71941;SDS011;59997;53.300;-6.260;2022-12-18T00:45:16;15.80;;;6.55;;
71941;SDS011;59997;53.300;-6.260;2022-12-18T00:47:42;17.58;;;7.45;;
71941;SDS011;59997;53.300;-6.260;2022-12-18T00:50:08;20.10;;;7.00;;
71941;SDS011;59997;53.300;-6.260;2022-12-18T00:52:34;19.27;;;6.95;;
71941;SDS011;59997;53.300;-6.260;2022-12-18T00:54:59;15.15;;;6.40;;
71941;SDS011;59997;53.300;-6.260;2022-12-18T00:57:24;14.53;;;6.30;;
71941;SDS011;59997;53.300;-6.260;2022-12-18T00:59:50;15.10;;;5.17;;
71941;SDS011;59997;53.300;-6.260;2022-12-18T01:02:15;16.47;;;6.50;;
71941;SDS011;59997;53.300;-6.260;2022-12-18T01:04:41;16.42;;;5.15;;
71941;SDS011;59997;53.300;-6.260;2022-12-18T01:07:06;12.90;;;4.10;;
71941;SDS011;59997;53.300;-6.260;2022-12-18T01:09:32;13.67;;;3.97;;
71941;SDS011;59997;53.300;-6.260;2022-12-18T01:11:57;10.43;;;4.03;;
71941;SDS011;59997;53.300;-6.260;2022-12-18T01:14:22;10.37;;;2.60;;
71941;SDS011;59997;53.300;-6.260;2022-12-18T01:16:48;10.88;;;2.85;;
71941;SDS011;59997;53.300;-6.260;2022-12-18T01:19:13;6.57;;;2.33;;
71941;SDS011;59997;53.300;-6.260;2022-12-18T01:21:39;8.23;;;2.53;;
71941;SDS011;59997;53.300;-6.260;2022-12-18T01:24:04;8.47;;;2.17;;
71941;SDS011;59997;53.300;-6.260;2022-12-18T01:26:30;9.60;;;2.55;;
71941;SDS011;59997;53.300;-6.260;2022-12-18T01:28:56;7.83;;;2.20;;
71941;SDS011;59997;53.300;-6.260;2022-12-18T01:31:27;11.20;;;2.30;;
71941;SDS011;59997;53.300;-6.260;2022-12-18T01:33:55;10.55;;;2.33;;
71941;SDS011;59997;53.300;-6.260;2022-12-18T01:36:31;16.63;;;2.80;;
71941;SDS011;59997;53.300;-6.260;2022-12-18T01:39:01;11.73;;;2.25;;
71941;SDS011;59997;53.300;-6.260;2022-12-18T01:41:30;10.93;;;2.80;;
71941;SDS011;59997;53.300;-6.260;2022-12-18T01:47:21;10.80;;;2.63;;
71941;SDS011;59997;53.300;-6.260;2022-12-18T01:49:54;8.73;;;2.47;;
71941;SDS011;59997;53.300;-6.260;2022-12-18T01:52:20;8.90;;;2.55;;
71941;SDS011;59997;53.300;-6.260;2022-12-18T01:54:47;12.88;;;2.55;;
71941;SDS011;59997;53.300;-6.260;2022-12-18T01:57:15;12.50;;;2.03;;
71941;SDS011;59997;53.300;-6.260;2022-12-18T01:59:40;8.23;;;2.20;;
71941;SDS011;59997;53.300;-6.260;2022-12-18T02:02:10;14.90;;;2.50;;
71941;SDS011;59997;53.300;-6.260;2022-12-18T02:04:36;11.68;;;2.10;;
71941;SDS011;59997;53.300;-6.260;2022-12-18T02:07:19;9.27;;;2.25;;
71941;SDS011;59997;53.300;-6.260;2022-12-18T02:15:19;11.23;;;2.60;;
71941;SDS011;59997;53.300;-6.260;2022-12-18T02:17:54;8.35;;;2.20;;
71941;SDS011;59997;53.300;-6.260;2022-12-18T02:20:49;8.32;;;1.75;;
71941;SDS011;59997;53.300;-6.260;2022-12-18T02:26:46;12.07;;;1.95;;
71941;SDS011;59997;53.300;-6.260;2022-12-18T02:29:16;13.73;;;2.28;;
71941;SDS011;59997;53.300;-6.260;2022-12-18T02:31:48;11.15;;;1.30;;
71941;SDS011;59997;53.300;-6.260;2022-12-18T02:34:17;7.03;;;1.10;;
71941;SDS011;59997;53.300;-6.260;2022-12-18T02:36:45;9.68;;;1.20;;
71941;SDS011;59997;53.300;-6.260;2022-12-18T02:39:12;8.20;;;1.20;;
71941;SDS011;59997;53.300;-6.260;2022-12-18T02:41:40;11.77;;;1.23;;
71941;SDS011;59997;53.300;-6.260;2022-12-18T02:44:07;8.18;;;1.23;;
71941;SDS011;59997;53.300;-6.260;2022-12-18T02:57:37;7.53;;;0.98;;
71941;SDS011;59997;53.300;-6.260;2022-12-18T03:00:14;10.10;;;1.50;;
71941;SDS011;59997;53.300;-6.260;2022-12-18T03:08:23;8.45;;;1.55;;
71941;SDS011;59997;53.300;-6.260;2022-12-18T03:10:54;13.00;;;2.08;;
71941;SDS011;59997;53.300;-6.260;2022-12-18T03:13:28;10.47;;;1.97;;
71941;SDS011;59997;53.300;-6.260;2022-12-18T03:15:59;8.02;;;1.70;;
71941;SDS011;59997;53.300;-6.260;2022-12-18T03:18:29;11.00;;;1.73;;
71941;SDS011;59997;53.300;-6.260;2022-12-18T03:20:56;12.95;;;2.40;;
71941;SDS011;59997;53.300;-6.260;2022-12-18T03:23:25;9.13;;;1.85;;
71941;SDS011;59997;53.300;-6.260;2022-12-18T03:25:55;9.30;;;1.53;;
71941;SDS011;59997;53.300;-6.260;2022-12-18T03:28:23;16.48;;;2.00;;
71941;SDS011;59997;53.300;-6.260;2022-12-18T03:30:50;8.25;;;1.55;;
71941;SDS011;59997;53.300;-6.260;2022-12-18T03:33:40;9.17;;;1.80;;
71941;SDS011;59997;53.300;-6.260;2022-12-18T03:36:10;8.35;;;1.83;;
71941;SDS011;59997;53.300;-6.260;2022-12-18T03:38:35;12.82;;;2.08;;
71941;SDS011;59997;53.300;-6.260;2022-12-18T03:43:46;11.55;;;2.35;;
71941;SDS011;59997;53.300;-6.260;2022-12-18T03:49:25;12.77;;;2.63;;
71941;SDS011;59997;53.300;-6.260;2022-12-18T03:52:06;21.42;;;4.00;;
71941;SDS011;59997;53.300;-6.260;2022-12-18T03:54:36;11.95;;;3.03;;
71941;SDS011;59997;53.300;-6.260;2022-12-18T03:57:10;13.43;;;3.40;;
71941;SDS011;59997;53.300;-6.260;2022-12-18T03:59:39;11.45;;;3.05;;
71941;SDS011;59997;53.300;-6.260;2022-12-18T04:02:06;13.60;;;3.50;;
71941;SDS011;59997;53.300;-6.260;2022-12-18T04:04:33;11.60;;;3.78;;
71941;SDS011;59997;53.300;-6.260;2022-12-18T04:07:00;12.80;;;3.92;;
71941;SDS011;59997;53.300;-6.260;2022-12-18T04:09:27;11.10;;;3.78;;
71941;SDS011;59997;53.300;-6.260;2022-12-18T04:11:53;15.68;;;4.05;;
71941;SDS011;59997;53.300;-6.260;2022-12-18T04:14:18;13.88;;;3.88;;
71941;SDS011;59997;53.300;-6.260;2022-12-18T04:16:44;14.33;;;3.77;;
71941;SDS011;59997;53.300;-6.260;2022-12-18T04:19:09;17.23;;;4.30;;
71941;SDS011;59997;53.300;-6.260;2022-12-18T04:21:35;18.00;;;3.87;;
71941;SDS011;59997;53.300;-6.260;2022-12-18T04:24:00;16.95;;;4.10;;
71941;SDS011;59997;53.300;-6.260;2022-12-18T04:26:26;16.53;;;3.93;;
71941;SDS011;59997;53.300;-6.260;2022-12-18T04:28:51;15.13;;;4.03;;
71941;SDS011;59997;53.300;-6.260;2022-12-18T04:31:16;15.13;;;3.60;;
71941;SDS011;59997;53.300;-6.260;2022-12-18T04:33:42;20.40;;;4.70;;
71941;SDS011;59997;53.300;-6.260;2022-12-18T04:36:07;13.67;;;4.00;;
71941;SDS011;59997;53.300;-6.260;2022-12-18T04:38:33;14.90;;;4.33;;
71941;SDS011;59997;53.300;-6.260;2022-12-18T04:40:58;14.00;;;4.67;;
71941;SDS011;59997;53.300;-6.260;2022-12-18T04:43:24;10.88;;;3.97;;
71941;SDS011;59997;53.300;-6.260;2022-12-18T04:45:49;14.30;;;4.57;;
71941;SDS011;59997;53.300;-6.260;2022-12-18T04:48:15;20.83;;;5.00;;
71941;SDS011;59997;53.300;-6.260;2022-12-18T04:50:40;14.68;;;4.60;;
71941;SDS011;59997;53.300;-6.260;2022-12-18T04:53:06;18.13;;;4.00;;
71941;SDS011;59997;53.300;-6.260;2022-12-18T04:55:32;17.30;;;4.43;;
71941;SDS011;59997;53.300;-6.260;2022-12-18T04:57:57;14.43;;;4.20;;
71941;SDS011;59997;53.300;-6.260;2022-12-18T05:00:22;16.17;;;4.03;;
71941;SDS011;59997;53.300;-6.260;2022-12-18T05:02:48;18.27;;;4.47;;
71941;SDS011;59997;53.300;-6.260;2022-12-18T05:05:13;13.90;;;3.93;;
71941;SDS011;59997;53.300;-6.260;2022-12-18T05:07:39;16.88;;;4.20;;
71941;SDS011;59997;53.300;-6.260;2022-12-18T05:10:05;18.30;;;4.33;;
71941;SDS011;59997;53.300;-6.260;2022-12-18T05:12:30;15.52;;;4.50;;
71941;SDS011;59997;53.300;-6.260;2022-12-18T05:14:56;10.57;;;2.83;;
71941;SDS011;59997;53.300;-6.260;2022-12-18T05:17:21;16.58;;;4.38;;
71941;SDS011;59997;53.300;-6.260;2022-12-18T05:19:47;16.38;;;4.30;;
71941;SDS011;59997;53.300;-6.260;2022-12-18T05:22:12;17.07;;;4.03;;
71941;SDS011;59997;53.300;-6.260;2022-12-18T05:24:38;11.57;;;3.23;;
71941;SDS011;59997;53.300;-6.260;2022-12-18T05:27:03;15.47;;;4.47;;
71941;SDS011;59997;53.300;-6.260;2022-12-18T05:29:29;10.23;;;3.40;;
71941;SDS011;59997;53.300;-6.260;2022-12-18T05:31:54;13.98;;;4.10;;
71941;SDS011;59997;53.300;-6.260;2022-12-18T05:34:20;13.68;;;3.50;;
71941;SDS011;59997;53.300;-6.260;2022-12-18T05:36:45;16.88;;;3.70;;
71941;SDS011;59997;53.300;-6.260;2022-12-18T05:39:11;15.13;;;4.00;;
71941;SDS011;59997;53.300;-6.260;2022-12-18T05:41:36;17.23;;;4.07;;
71941;SDS011;59997;53.300;-6.260;2022-12-18T05:44:02;18.50;;;3.53;;
71941;SDS011;59997;53.300;-6.260;2022-12-18T05:46:28;14.87;;;3.90;;
71941;SDS011;59997;53.300;-6.260;2022-12-18T05:48:54;13.27;;;3.67;;
71941;SDS011;59997;53.300;-6.260;2022-12-18T05:51:20;15.52;;;3.50;;
71941;SDS011;59997;53.300;-6.260;2022-12-18T05:53:47;15.60;;;3.42;;
71941;SDS011;59997;53.300;-6.260;2022-12-18T05:56:17;18.15;;;4.22;;
71941;SDS011;59997;53.300;-6.260;2022-12-18T05:58:43;14.77;;;4.10;;
71941;SDS011;59997;53.300;-6.260;2022-12-18T06:01:19;18.07;;;4.43;;
71941;SDS011;59997;53.300;-6.260;2022-12-18T06:03:50;18.67;;;4.57;;
71941;SDS011;59997;53.300;-6.260;2022-12-18T06:06:23;21.38;;;4.25;;
71941;SDS011;59997;53.300;-6.260;2022-12-18T06:08:50;16.90;;;3.67;;
71941;SDS011;59997;53.300;-6.260;2022-12-18T06:11:17;15.40;;;4.13;;
71941;SDS011;59997;53.300;-6.260;2022-12-18T06:13:44;21.35;;;4.70;;
71941;SDS011;59997;53.300;-6.260;2022-12-18T06:16:10;17.20;;;4.13;;
71941;SDS011;59997;53.300;-6.260;2022-12-18T06:18:36;17.50;;;4.80;;
71941;SDS011;59997;53.300;-6.260;2022-12-18T06:21:01;18.33;;;4.30;;
71941;SDS011;59997;53.300;-6.260;2022-12-18T06:23:27;21.60;;;5.33;;
71941;SDS011;59997;53.300;-6.260;2022-12-18T06:25:53;15.38;;;3.65;;
71941;SDS011;59997;53.300;-6.260;2022-12-18T06:28:18;16.88;;;4.43;;
71941;SDS011;59997;53.300;-6.260;2022-12-18T06:30:47;14.63;;;3.70;;
71941;SDS011;59997;53.300;-6.260;2022-12-18T06:33:14;13.75;;;3.38;;
71941;SDS011;59997;53.300;-6.260;2022-12-18T06:35:40;18.90;;;4.55;;
71941;SDS011;59997;53.300;-6.260;2022-12-18T06:38:06;11.32;;;3.13;;
71941;SDS011;59997;53.300;-6.260;2022-12-18T06:40:31;17.27;;;4.13;;
71941;SDS011;59997;53.300;-6.260;2022-12-18T06:42:57;14.80;;;3.10;;
71941;SDS011;59997;53.300;-6.260;2022-12-18T06:45:22;16.38;;;3.17;;
71941;SDS011;59997;53.300;-6.260;2022-12-18T06:47:48;16.70;;;3.30;;
71941;SDS011;59997;53.300;-6.260;2022-12-18T06:50:13;15.93;;;2.60;;
71941;SDS011;59997;53.300;-6.260;2022-12-18T06:52:39;12.13;;;2.43;;
71941;SDS011;59997;53.300;-6.260;2022-12-18T06:55:05;11.70;;;2.63;;
71941;SDS011;59997;53.300;-6.260;2022-12-18T06:57:31;11.25;;;2.85;;
71941;SDS011;59997;53.300;-6.260;2022-12-18T06:59:57;13.60;;;2.83;;
71941;SDS011;59997;53.300;-6.260;2022-12-18T07:02:22;11.40;;;2.37;;
71941;SDS011;59997;53.300;-6.260;2022-12-18T07:04:48;7.88;;;1.88;;
71941;SDS011;59997;53.300;-6.260;2022-12-18T07:07:14;9.65;;;2.47;;
71941;SDS011;59997;53.300;-6.260;2022-12-18T07:09:40;12.48;;;2.13;;
71941;SDS011;59997;53.300;-6.260;2022-12-18T07:12:05;10.17;;;2.23;;
71941;SDS011;59997;53.300;-6.260;2022-12-18T07:14:31;9.07;;;1.50;;
71941;SDS011;59997;53.300;-6.260;2022-12-18T07:16:57;6.97;;;1.80;;
71941;SDS011;59997;53.300;-6.260;2022-12-18T07:19:22;12.03;;;2.00;;
71941;SDS011;59997;53.300;-6.260;2022-12-18T07:21:49;8.80;;;1.70;;
71941;SDS011;59997;53.300;-6.260;2022-12-18T07:24:15;15.27;;;2.17;;
71941;SDS011;59997;53.300;-6.260;2022-12-18T07:26:40;8.17;;;2.00;;
71941;SDS011;59997;53.300;-6.260;2022-12-18T07:29:06;9.70;;;2.30;;
71941;SDS011;59997;53.300;-6.260;2022-12-18T07:31:31;7.77;;;2.43;;
71941;SDS011;59997;53.300;-6.260;2022-12-18T07:33:56;8.83;;;2.40;;
71941;SDS011;59997;53.300;-6.260;2022-12-18T07:36:22;11.20;;;2.87;;
71941;SDS011;59997;53.300;-6.260;2022-12-18T07:38:48;10.15;;;2.92;;
71941;SDS011;59997;53.300;-6.260;2022-12-18T07:41:14;13.93;;;2.97;;
71941;SDS011;59997;53.300;-6.260;2022-12-18T07:43:40;13.27;;;2.92;;
71941;SDS011;59997;53.300;-6.260;2022-12-18T07:46:07;12.05;;;3.00;;
71941;SDS011;59997;53.300;-6.260;2022-12-18T07:48:33;11.82;;;2.60;;
71941;SDS011;59997;53.300;-6.260;2022-12-18T07:51:03;19.03;;;3.50;;
71941;SDS011;59997;53.300;-6.260;2022-12-18T07:53:30;15.10;;;3.22;;
71941;SDS011;59997;53.300;-6.260;2022-12-18T07:55:57;13.32;;;3.83;;
71941;SDS011;59997;53.300;-6.260;2022-12-18T07:58:23;11.25;;;2.67;;
71941;SDS011;59997;53.300;-6.260;2022-12-18T08:00:49;10.57;;;2.90;;
71941;SDS011;59997;53.300;-6.260;2022-12-18T08:03:15;11.87;;;3.07;;
71941;SDS011;59997;53.300;-6.260;2022-12-18T08:05:40;14.07;;;3.42;;
71941;SDS011;59997;53.300;-6.260;2022-12-18T08:08:06;14.47;;;3.40;;
71941;SDS011;59997;53.300;-6.260;2022-12-18T08:10:31;11.95;;;2.88;;
71941;SDS011;59997;53.300;-6.260;2022-12-18T08:12:57;12.00;;;2.92;;
71941;SDS011;59997;53.300;-6.260;2022-12-18T08:15:22;11.03;;;2.93;;
71941;SDS011;59997;53.300;-6.260;2022-12-18T08:17:47;15.17;;;3.30;;
71941;SDS011;59997;53.300;-6.260;2022-12-18T08:20:13;19.17;;;4.47;;
71941;SDS011;59997;53.300;-6.260;2022-12-18T08:22:43;11.25;;;3.15;;
71941;SDS011;59997;53.300;-6.260;2022-12-18T08:25:09;11.50;;;3.00;;
71941;SDS011;59997;53.300;-6.260;2022-12-18T08:27:35;12.75;;;4.07;;
71941;SDS011;59997;53.300;-6.260;2022-12-18T08:30:01;17.45;;;3.75;;
71941;SDS011;59997;53.300;-6.260;2022-12-18T08:32:28;12.60;;;3.90;;
71941;SDS011;59997;53.300;-6.260;2022-12-18T08:34:53;10.82;;;3.60;;
71941;SDS011;59997;53.300;-6.260;2022-12-18T08:37:19;14.03;;;4.47;;
71941;SDS011;59997;53.300;-6.260;2022-12-18T08:39:44;15.30;;;3.90;;
71941;SDS011;59997;53.300;-6.260;2022-12-18T08:42:10;15.70;;;4.22;;
71941;SDS011;59997;53.300;-6.260;2022-12-18T08:44:54;14.50;;;4.10;;
71941;SDS011;59997;53.300;-6.260;2022-12-18T08:47:20;10.77;;;3.40;;
71941;SDS011;59997;53.300;-6.260;2022-12-18T08:49:45;10.17;;;3.10;;
71941;SDS011;59997;53.300;-6.260;2022-12-18T08:52:10;14.70;;;4.23;;
71941;SDS011;59997;53.300;-6.260;2022-12-18T08:54:36;11.97;;;4.83;;
71941;SDS011;59997;53.300;-6.260;2022-12-18T08:57:01;15.20;;;4.10;;
71941;SDS011;59997;53.300;-6.260;2022-12-18T08:59:27;12.30;;;3.67;;
71941;SDS011;59997;53.300;-6.260;2022-12-18T09:01:53;14.13;;;3.77;;
71941;SDS011;59997;53.300;-6.260;2022-12-18T09:04:18;17.42;;;3.85;;
71941;SDS011;59997;53.300;-6.260;2022-12-18T09:06:44;17.00;;;3.37;;
71941;SDS011;59997;53.300;-6.260;2022-12-18T09:09:09;16.83;;;4.80;;
71941;SDS011;59997;53.300;-6.260;2022-12-18T09:11:35;13.25;;;3.25;;
71941;SDS011;59997;53.300;-6.260;2022-12-18T09:14:01;10.40;;;3.10;;
71941;SDS011;59997;53.300;-6.260;2022-12-18T09:16:27;10.10;;;3.20;;
71941;SDS011;59997;53.300;-6.260;2022-12-18T09:18:56;11.63;;;4.00;;
71941;SDS011;59997;53.300;-6.260;2022-12-18T09:21:25;9.65;;;3.10;;
71941;SDS011;59997;53.300;-6.260;2022-12-18T09:23:53;10.95;;;3.88;;
71941;SDS011;59997;53.300;-6.260;2022-12-18T09:26:20;8.45;;;2.22;;
71941;SDS011;59997;53.300;-6.260;2022-12-18T09:28:46;6.90;;;2.22;;
71941;SDS011;59997;53.300;-6.260;2022-12-18T09:31:12;9.82;;;2.50;;
71941;SDS011;59997;53.300;-6.260;2022-12-18T09:33:39;7.97;;;2.35;;
71941;SDS011;59997;53.300;-6.260;2022-12-18T09:36:07;12.33;;;2.77;;
71941;SDS011;59997;53.300;-6.260;2022-12-18T09:38:35;10.50;;;2.83;;
71941;SDS011;59997;53.300;-6.260;2022-12-18T09:43:57;8.20;;;2.10;;
71941;SDS011;59997;53.300;-6.260;2022-12-18T09:46:39;8.52;;;2.25;;
71941;SDS011;59997;53.300;-6.260;2022-12-18T09:49:11;11.70;;;2.25;;
71941;SDS011;59997;53.300;-6.260;2022-12-18T09:51:41;9.27;;;2.33;;
71941;SDS011;59997;53.300;-6.260;2022-12-18T09:54:18;11.05;;;2.53;;
71941;SDS011;59997;53.300;-6.260;2022-12-18T09:56:47;9.82;;;2.58;;
71941;SDS011;59997;53.300;-6.260;2022-12-18T09:59:26;8.18;;;2.00;;
71941;SDS011;59997;53.300;-6.260;2022-12-18T10:01:55;6.13;;;1.40;;
71941;SDS011;59997;53.300;-6.260;2022-12-18T10:04:21;8.10;;;1.80;;
71941;SDS011;59997;53.300;-6.260;2022-12-18T10:06:52;7.22;;;2.05;;
71941;SDS011;59997;53.300;-6.260;2022-12-18T10:09:28;6.80;;;1.53;;
71941;SDS011;59997;53.300;-6.260;2022-12-18T10:28:31;6.93;;;1.70;;
71941;SDS011;59997;53.300;-6.260;2022-12-18T10:31:05;8.55;;;1.90;;
71941;SDS011;59997;53.300;-6.260;2022-12-18T10:33:32;10.43;;;2.58;;
71941;SDS011;59997;53.300;-6.260;2022-12-18T10:35:58;7.38;;;2.15;;
71941;SDS011;59997;53.300;-6.260;2022-12-18T10:38:26;8.50;;;2.47;;
71941;SDS011;59997;53.300;-6.260;2022-12-18T10:43:28;7.63;;;2.30;;
71941;SDS011;59997;53.300;-6.260;2022-12-18T10:48:34;8.45;;;2.42;;
71941;SDS011;59997;53.300;-6.260;2022-12-18T10:51:05;9.15;;;2.80;;
71941;SDS011;59997;53.300;-6.260;2022-12-18T10:53:33;9.73;;;2.67;;
71941;SDS011;59997;53.300;-6.260;2022-12-18T10:56:02;9.25;;;2.67;;
71941;SDS011;59997;53.300;-6.260;2022-12-18T10:58:33;8.88;;;2.53;;
71941;SDS011;59997;53.300;-6.260;2022-12-18T11:06:05;9.77;;;2.37;;
71941;SDS011;59997;53.300;-6.260;2022-12-18T11:08:33;9.80;;;2.65;;
71941;SDS011;59997;53.300;-6.260;2022-12-18T11:10:59;9.30;;;2.27;;
71941;SDS011;59997;53.300;-6.260;2022-12-18T11:13:26;9.52;;;2.35;;
71941;SDS011;59997;53.300;-6.260;2022-12-18T11:15:54;11.77;;;2.85;;
71941;SDS011;59997;53.300;-6.260;2022-12-18T11:18:22;9.10;;;2.90;;
71941;SDS011;59997;53.300;-6.260;2022-12-18T11:20:53;10.60;;;2.42;;
71941;SDS011;59997;53.300;-6.260;2022-12-18T11:23:22;10.05;;;2.65;;
71941;SDS011;59997;53.300;-6.260;2022-12-18T11:26:07;10.45;;;2.50;;
71941;SDS011;59997;53.300;-6.260;2022-12-18T11:33:56;6.47;;;1.20;;
71941;SDS011;59997;53.300;-6.260;2022-12-18T11:36:31;6.03;;;1.00;;
71941;SDS011;59997;53.300;-6.260;2022-12-18T11:39:07;6.07;;;1.05;;
71941;SDS011;59997;53.300;-6.260;2022-12-18T11:41:41;5.00;;;0.97;;
71941;SDS011;59997;53.300;-6.260;2022-12-18T11:50:00;4.07;;;0.70;;
71941;SDS011;59997;53.300;-6.260;2022-12-18T11:52:28;5.07;;;0.80;;
71941;SDS011;59997;53.300;-6.260;2022-12-18T11:55:11;5.57;;;0.77;;
71941;SDS011;59997;53.300;-6.260;2022-12-18T11:57:47;3.92;;;0.50;;
71941;SDS011;59997;53.300;-6.260;2022-12-18T12:00:18;4.07;;;0.70;;
71941;SDS011;59997;53.300;-6.260;2022-12-18T12:14:50;4.05;;;0.60;;
71941;SDS011;59997;53.300;-6.260;2022-12-18T12:30:32;3.63;;;0.77;;
71941;SDS011;59997;53.300;-6.260;2022-12-18T12:38:37;2.08;;;0.30;;
71941;SDS011;59997;53.300;-6.260;2022-12-18T12:41:12;3.22;;;0.40;;
71941;SDS011;59997;53.300;-6.260;2022-12-18T12:43:58;3.38;;;0.40;;
71941;SDS011;59997;53.300;-6.260;2022-12-18T12:46:28;3.92;;;0.57;;
71941;SDS011;59997;53.300;-6.260;2022-12-18T12:49:19;5.23;;;0.60;;
71941;SDS011;59997;53.300;-6.260;2022-12-18T12:52:07;2.85;;;0.30;;
71941;SDS011;59997;53.300;-6.260;2022-12-18T12:54:37;4.40;;;0.50;;
71941;SDS011;59997;53.300;-6.260;2022-12-18T13:12:59;4.70;;;0.70;;
71941;SDS011;59997;53.300;-6.260;2022-12-18T13:18:32;3.90;;;0.60;;
71941;SDS011;59997;53.300;-6.260;2022-12-18T13:25:52;4.07;;;0.50;;
71941;SDS011;59997;53.300;-6.260;2022-12-18T13:31:57;3.15;;;0.40;;
71941;SDS011;59997;53.300;-6.260;2022-12-18T13:34:29;2.97;;;0.30;;
71941;SDS011;59997;53.300;-6.260;2022-12-18T13:39:56;3.90;;;0.40;;
71941;SDS011;59997;53.300;-6.260;2022-12-18T13:42:31;4.53;;;0.50;;
71941;SDS011;59997;53.300;-6.260;2022-12-18T13:48:18;5.40;;;0.60;;
71941;SDS011;59997;53.300;-6.260;2022-12-18T13:50:49;5.13;;;0.47;;
71941;SDS011;59997;53.300;-6.260;2022-12-18T13:53:37;2.88;;;0.35;;
71941;SDS011;59997;53.300;-6.260;2022-12-18T13:56:07;3.65;;;0.50;;
71941;SDS011;59997;53.300;-6.260;2022-12-18T13:58:32;3.73;;;0.43;;
71941;SDS011;59997;53.300;-6.260;2022-12-18T14:00:58;3.90;;;0.60;;
71941;SDS011;59997;53.300;-6.260;2022-12-18T14:03:25;7.57;;;0.90;;
71941;SDS011;59997;53.300;-6.260;2022-12-18T14:05:59;5.78;;;0.82;;
71941;SDS011;59997;53.300;-6.260;2022-12-18T14:08:32;5.68;;;1.13;;
71941;SDS011;59997;53.300;-6.260;2022-12-18T14:11:00;5.87;;;1.03;;
71941;SDS011;59997;53.300;-6.260;2022-12-18T14:13:29;7.40;;;2.00;;
71941;SDS011;59997;53.300;-6.260;2022-12-18T14:15:57;6.32;;;1.27;;
71941;SDS011;59997;53.300;-6.260;2022-12-18T14:18:26;5.35;;;1.00;;
71941;SDS011;59997;53.300;-6.260;2022-12-18T14:21:04;5.28;;;0.98;;
71941;SDS011;59997;53.300;-6.260;2022-12-18T14:26:00;4.40;;;0.70;;
71941;SDS011;59997;53.300;-6.260;2022-12-18T14:28:27;4.30;;;0.60;;
71941;SDS011;59997;53.300;-6.260;2022-12-18T14:30:53;4.60;;;0.63;;
71941;SDS011;59997;53.300;-6.260;2022-12-18T14:33:21;4.25;;;0.50;;
71941;SDS011;59997;53.300;-6.260;2022-12-18T14:40:53;4.18;;;1.10;;
71941;SDS011;59997;53.300;-6.260;2022-12-18T14:43:24;3.90;;;0.60;;
71941;SDS011;59997;53.300;-6.260;2022-12-18T14:45:51;6.10;;;1.13;;
71941;SDS011;59997;53.300;-6.260;2022-12-18T14:48:18;5.20;;;0.90;;
71941;SDS011;59997;53.300;-6.260;2022-12-18T14:51:02;5.18;;;0.82;;
71941;SDS011;59997;53.300;-6.260;2022-12-18T14:53:41;5.32;;;0.90;;
71941;SDS011;59997;53.300;-6.260;2022-12-18T14:56:16;4.47;;;0.75;;
71941;SDS011;59997;53.300;-6.260;2022-12-18T14:58:45;4.40;;;0.73;;
71941;SDS011;59997;53.300;-6.260;2022-12-18T15:01:23;6.45;;;0.98;;
71941;SDS011;59997;53.300;-6.260;2022-12-18T15:03:51;4.97;;;0.80;;
71941;SDS011;59997;53.300;-6.260;2022-12-18T15:06:24;6.50;;;1.40;;
71941;SDS011;59997;53.300;-6.260;2022-12-18T15:08:52;5.38;;;0.77;;
71941;SDS011;59997;53.300;-6.260;2022-12-18T15:11:54;6.07;;;0.70;;
71941;SDS011;59997;53.300;-6.260;2022-12-18T15:16:54;6.03;;;1.02;;
71941;SDS011;59997;53.300;-6.260;2022-12-18T15:19:21;5.73;;;0.87;;
71941;SDS011;59997;53.300;-6.260;2022-12-18T15:21:53;6.25;;;0.68;;
71941;SDS011;59997;53.300;-6.260;2022-12-18T15:24:20;3.67;;;0.55;;
71941;SDS011;59997;53.300;-6.260;2022-12-18T15:26:51;4.13;;;0.63;;
71941;SDS011;59997;53.300;-6.260;2022-12-18T15:29:19;5.28;;;0.90;;
71941;SDS011;59997;53.300;-6.260;2022-12-18T15:31:57;5.53;;;1.02;;
71941;SDS011;59997;53.300;-6.260;2022-12-18T15:34:24;7.43;;;1.47;;
71941;SDS011;59997;53.300;-6.260;2022-12-18T15:36:51;7.38;;;1.67;;
71941;SDS011;59997;53.300;-6.260;2022-12-18T15:39:17;8.48;;;2.03;;
71941;SDS011;59997;53.300;-6.260;2022-12-18T15:41:42;8.87;;;2.17;;
71941;SDS011;59997;53.300;-6.260;2022-12-18T15:44:28;8.80;;;2.42;;
71941;SDS011;59997;53.300;-6.260;2022-12-18T15:46:54;8.10;;;1.50;;
71941;SDS011;59997;53.300;-6.260;2022-12-18T15:49:19;7.73;;;1.60;;
71941;SDS011;59997;53.300;-6.260;2022-12-18T15:51:44;5.95;;;1.60;;
71941;SDS011;59997;53.300;-6.260;2022-12-18T15:54:15;7.22;;;1.75;;
71941;SDS011;59997;53.300;-6.260;2022-12-18T15:56:41;10.47;;;2.20;;
71941;SDS011;59997;53.300;-6.260;2022-12-18T15:59:26;9.18;;;2.42;;
71941;SDS011;59997;53.300;-6.260;2022-12-18T16:01:51;7.50;;;1.70;;
71941;SDS011;59997;53.300;-6.260;2022-12-18T16:04:21;8.20;;;1.80;;
71941;SDS011;59997;53.300;-6.260;2022-12-18T16:06:48;8.95;;;1.55;;
71941;SDS011;59997;53.300;-6.260;2022-12-18T16:09:14;9.15;;;2.90;;
71941;SDS011;59997;53.300;-6.260;2022-12-18T16:11:41;11.63;;;3.87;;
71941;SDS011;59997;53.300;-6.260;2022-12-18T16:14:17;7.45;;;1.98;;
71941;SDS011;59997;53.300;-6.260;2022-12-18T16:16:48;9.27;;;2.40;;
71941;SDS011;59997;53.300;-6.260;2022-12-18T16:19:15;9.70;;;2.10;;
71941;SDS011;59997;53.300;-6.260;2022-12-18T16:21:41;8.27;;;2.10;;
71941;SDS011;59997;53.300;-6.260;2022-12-18T16:24:13;8.45;;;2.15;;
71941;SDS011;59997;53.300;-6.260;2022-12-18T16:26:47;20.20;;;7.43;;
71941;SDS011;59997;53.300;-6.260;2022-12-18T16:29:13;9.70;;;2.60;;
71941;SDS011;59997;53.300;-6.260;2022-12-18T16:31:39;9.50;;;1.88;;
71941;SDS011;59997;53.300;-6.260;2022-12-18T16:34:15;7.90;;;1.80;;
71941;SDS011;59997;53.300;-6.260;2022-12-18T16:36:43;8.25;;;2.38;;
71941;SDS011;59997;53.300;-6.260;2022-12-18T16:39:08;5.90;;;1.70;;
71941;SDS011;59997;53.300;-6.260;2022-12-18T16:41:34;5.88;;;1.60;;
71941;SDS011;59997;53.300;-6.260;2022-12-18T16:44:00;7.97;;;1.90;;
71941;SDS011;59997;53.300;-6.260;2022-12-18T16:46:26;6.28;;;1.35;;
71941;SDS011;59997;53.300;-6.260;2022-12-18T16:48:51;6.30;;;1.30;;
71941;SDS011;59997;53.300;-6.260;2022-12-18T16:51:17;5.95;;;1.40;;
71941;SDS011;59997;53.300;-6.260;2022-12-18T16:53:42;5.30;;;1.30;;
71941;SDS011;59997;53.300;-6.260;2022-12-18T16:56:07;5.67;;;1.50;;
71941;SDS011;59997;53.300;-6.260;2022-12-18T16:58:33;7.80;;;1.50;;
71941;SDS011;59997;53.300;-6.260;2022-12-18T17:00:59;5.63;;;1.27;;
71941;SDS011;59997;53.300;-6.260;2022-12-18T17:03:24;4.97;;;0.97;;
71941;SDS011;59997;53.300;-6.260;2022-12-18T17:05:50;6.05;;;1.30;;